Terminal Aerodrome Forecast
Issued by NWS Billings, MT

Home | Current Version | Previous Version | Graphics & Text | Print | Product List | Glossary On
Versions: 1 2 3 4 5 6 7 8 9 10 11 12 13 14 15 16 17 18 19 20 21 22 23 24 25 26 27 28 29 30 31 32
000
FTUS45 KBYZ 250419 AAB
TAFMLS
TAF AMD
KMLS 250419Z 2504/2524 17003KT P6SM OVC080
     FM250900 30007KT P6SM VCSH BKN012
     FM251600 30011KT P6SM BKN030
     FM252100 29014KT 5SM -SHSN SCT015 BKN025=

USA.gov is the U.S. government's official web portal to all federal, state and local government web resources and services.